createdAt,value
2019-01-19T00:22:39.380Z,95.50
2019-01-19T00:25:13.916Z,96.20
2019-01-19T00:30:58.110Z,95.80
2019-01-19T00:33:35.963Z,95.80
2019-01-19T00:36:16.819Z,95.70
2019-01-19T00:39:06.951Z,95.80
2019-01-19T00:42:04.207Z,95.80
2019-01-19T00:44:38.619Z,95.60
2019-01-19T00:47:13.459Z,95.70
2019-01-19T00:49:44.456Z,95.60
2019-01-19T00:52:21.985Z,95.70
2019-01-19T00:55:32.349Z,95.50
2019-01-19T00:58:06.853Z,95.80
2019-01-19T01:00:51.748Z,95.40
2019-01-19T01:03:29.647Z,95.80
2019-01-19T01:06:07.449Z,95.70
2019-01-19T01:08:42.270Z,95.50
2019-01-19T01:11:14.095Z,95.50
2019-01-19T01:14:02.571Z,95.40
2019-01-19T01:16:49.456Z,95.50
2019-01-19T01:19:32.983Z,95.30
2019-01-19T01:22:14.127Z,94.60
2019-01-19T01:24:55.067Z,95.60
2019-01-19T01:27:48.125Z,95.70
2019-01-19T01:30:39.237Z,95.40
2019-01-19T01:33:29.304Z,95.90
2019-01-19T01:36:06.414Z,95.80
2019-01-19T01:38:50.107Z,95.60
2019-01-19T01:41:39.703Z,95.70
2019-01-19T01:44:11.480Z,95.60
2019-01-19T01:47:12.186Z,95.30
2019-01-19T01:49:46.736Z,95.10
2019-01-19T01:55:34.160Z,95.80
2019-01-19T02:01:09.717Z,95.70
2019-01-19T02:03:59.306Z,95.40
2019-01-19T02:06:58.296Z,95.30
2019-01-19T02:09:46.636Z,95.50
2019-01-19T02:12:39.421Z,95.50
2019-01-19T02:15:38.312Z,95.40
2019-01-19T02:18:13.064Z,94.90
2019-01-19T02:20:56.452Z,95.00
2019-01-19T02:23:46.148Z,95.70
2019-01-19T02:26:26.610Z,95.60
2019-01-19T02:29:10.550Z,95.40
2019-01-19T02:32:10.983Z,95.40
2019-01-19T02:34:45.176Z,95.40
2019-01-19T02:37:51.543Z,95.10
2019-01-19T02:40:25.858Z,94.90
2019-01-19T02:43:03.243Z,95.60
2019-01-19T02:45:46.911Z,95.40
2019-01-19T02:48:44.166Z,95.40
2019-01-19T02:51:32.411Z,94.90
2019-01-19T02:54:16.149Z,95.50
2019-01-19T02:57:07.223Z,95.50
2019-01-19T02:59:39.015Z,95.40
2019-01-19T03:02:25.827Z,95.50
2019-01-19T03:05:03.319Z,95.50
2019-01-19T03:07:40.384Z,95.70
2019-01-19T03:10:15.180Z,95.80
2019-01-19T03:12:52.771Z,96.00
2019-01-19T03:15:51.156Z,96.40
2019-01-19T03:18:44.005Z,96.50
2019-01-19T03:21:38.096Z,96.80
2019-01-19T03:24:22.112Z,97.00
2019-01-19T03:27:26.117Z,97.20
2019-01-19T03:30:03.750Z,97.20
2019-01-19T03:32:38.679Z,97.30
2019-01-19T03:35:21.667Z,97.20
2019-01-19T05:10:12.387Z,97.70
2019-01-19T05:12:40.816Z,98.40
2019-01-19T05:15:12.299Z,98.10
2019-01-19T05:17:41.052Z,98.00
2019-01-19T05:20:20.099Z,97.90
2019-01-19T05:22:48.599Z,97.80
2019-01-19T05:25:17.156Z,97.80
2019-01-19T05:27:45.618Z,98.00
2019-01-19T05:30:16.599Z,98.00
2019-01-19T05:32:45.184Z,98.10
2019-01-19T05:35:14.078Z,97.90
2019-01-19T05:40:12.261Z,97.70
2019-01-19T05:42:40.734Z,98.00
2019-01-19T05:45:11.496Z,98.00
2019-01-19T05:47:40.066Z,97.80
2019-01-19T05:50:11.815Z,98.00
2019-01-19T05:52:40.404Z,98.00
2019-01-19T09:46:26.364Z,61.90
2019-01-19T09:48:54.856Z,59.60
2019-01-19T09:51:23.480Z,61.00
2019-01-19T09:56:49.369Z,58.50
2019-01-19T09:59:18.567Z,58.50
2019-01-19T10:01:52.874Z,58.90
2019-01-19T10:13:23.936Z,51.10
2019-01-19T10:15:52.405Z,49.60
2019-01-19T10:18:28.275Z,49.00
2019-01-19T10:20:57.384Z,49.70
2019-01-19T10:23:25.834Z,49.20
2019-01-19T10:25:54.345Z,48.50
2019-01-19T10:28:22.928Z,47.70
2019-01-19T10:30:51.624Z,48.00
2019-01-19T10:33:20.413Z,47.30
2019-01-19T10:35:48.853Z,46.90
2019-01-19T10:38:17.462Z,51.20
2019-01-19T10:40:46.049Z,49.80
2019-01-19T10:43:14.601Z,48.80
2019-01-19T10:45:43.112Z,47.10
2019-01-19T10:48:11.695Z,42.60
2019-01-19T10:50:40.144Z,43.40
2019-01-19T10:53:08.640Z,41.60
2019-01-19T10:55:37.092Z,43.20
2019-01-19T10:58:05.618Z,43.10
2019-01-19T11:00:35.437Z,42.00
2019-01-19T11:03:04.219Z,41.40
2019-01-19T11:05:32.801Z,40.70
2019-01-19T11:08:03.799Z,43.80
2019-01-19T11:10:35.391Z,44.00
2019-01-19T11:13:03.997Z,43.00
2019-01-19T11:15:32.533Z,38.70
2019-01-19T11:18:01.112Z,38.60
2019-01-19T11:20:31.004Z,38.80
2019-01-19T11:23:00.909Z,38.50
2019-01-19T11:27:58.040Z,35.50
2019-01-19T11:30:29.183Z,43.00
2019-01-19T11:32:57.634Z,47.70
2019-01-19T11:35:26.244Z,46.20
2019-01-19T11:37:54.707Z,49.00
2019-01-19T11:40:34.161Z,43.40
2019-01-19T11:43:02.832Z,42.50
2019-01-19T11:45:31.326Z,41.90
2019-01-19T11:47:59.763Z,43.90
2019-01-19T11:50:28.394Z,45.60
2019-01-19T11:52:56.844Z,43.80
2019-01-19T11:55:25.330Z,49.60
2019-01-19T11:58:01.806Z,45.30
2019-01-19T12:00:33.040Z,46.70
2019-01-19T12:03:01.651Z,47.30
2019-01-19T12:08:00.124Z,41.40
2019-01-19T12:10:30.479Z,44.00
2019-01-19T12:12:59.258Z,49.50
2019-01-19T12:15:27.844Z,48.20
2019-01-19T12:17:56.326Z,49.90
2019-01-19T12:20:27.868Z,47.50
2019-01-19T12:22:56.466Z,51.80
2019-01-19T12:25:25.629Z,54.10
2019-01-19T12:27:54.137Z,56.90
2019-01-19T12:30:27.643Z,60.60
2019-01-19T12:32:56.265Z,52.80
2019-01-19T12:35:24.912Z,55.30
2019-01-19T12:37:53.604Z,59.80
2019-01-19T12:40:24.016Z,58.80
2019-01-19T12:42:55.311Z,52.50
2019-01-19T12:45:29.394Z,52.10
2019-01-19T12:47:57.957Z,52.60
2019-01-19T12:50:27.544Z,53.30
2019-01-19T12:52:56.151Z,54.00
2019-01-19T12:55:24.631Z,57.10
2019-01-19T12:57:53.318Z,58.60
2019-01-19T13:00:29.083Z,60.80
2019-01-19T13:02:57.756Z,58.20
2019-01-19T13:05:38.625Z,56.90
2019-01-19T13:08:10.760Z,57.60
2019-01-19T13:11:01.084Z,62.00
2019-01-19T13:13:29.925Z,63.70
2019-01-19T13:18:49.581Z,68.40
2019-01-19T13:21:37.880Z,69.60
2019-01-19T13:27:41.392Z,73.20
2019-01-19T13:30:31.382Z,78.70
2019-01-19T13:33:12.186Z,77.80
2019-01-19T13:36:00.638Z,78.20
2019-01-19T13:38:51.465Z,78.10
2019-01-19T13:41:56.685Z,79.20
2019-01-19T13:47:28.879Z,84.20
2019-01-19T13:50:29.716Z,82.60
2019-01-19T13:53:24.036Z,82.20
2019-01-19T13:56:04.785Z,81.00
2019-01-19T13:58:42.393Z,81.40
2019-01-19T14:01:52.867Z,84.60
2019-01-19T14:04:42.853Z,84.20
2019-01-19T14:07:23.305Z,82.30
2019-01-19T14:10:00.919Z,85.40
2019-01-19T14:12:45.389Z,84.90
2019-01-19T14:15:17.937Z,87.60
2019-01-19T14:17:50.082Z,87.10
2019-01-19T14:20:36.224Z,88.00
2019-01-19T14:23:24.238Z,89.40
2019-01-19T14:26:03.121Z,90.30
2019-01-19T14:28:51.301Z,89.00
2019-01-19T14:31:58.175Z,89.80
2019-01-19T15:47:28.970Z,93.30
2019-01-19T15:50:18.064Z,93.30
2019-01-19T16:24:25.352Z,93.70
2019-01-19T16:27:06.467Z,93.60
2019-01-19T18:27:17.859Z,95.80
2019-01-19T18:38:04.177Z,95.90
2019-01-19T18:40:48.453Z,95.90
2019-01-19T18:43:47.841Z,95.80
2019-01-19T19:08:39.006Z,96.30
2019-01-19T19:11:43.728Z,96.30
2019-01-19T20:25:59.347Z,96.70
2019-01-19T20:28:29.804Z,96.90
2019-01-19T20:30:59.703Z,96.90
2019-01-19T20:33:29.804Z,97.20
2019-01-19T20:35:59.960Z,97.30
2019-01-19T20:38:31.752Z,97.30
2019-01-19T20:41:01.817Z,97.40
2019-01-19T20:43:32.676Z,97.40
2019-01-19T20:46:03.161Z,97.50
2019-01-19T20:48:33.129Z,97.50
2019-01-19T20:51:04.450Z,97.60
2019-01-19T20:53:34.642Z,97.60
2019-01-19T20:56:05.159Z,97.80
2019-01-19T20:58:34.607Z,97.90
2019-01-19T21:01:04.717Z,97.80
2019-01-19T21:03:34.655Z,97.90
2019-01-19T21:06:04.768Z,97.90
